Terminal Aerodrome Forecast
Issued by NWS Cleveland, OH

Home | Current Version | Previous Version | Text Only | Print | Product List | Glossary On
Versions: 1 2 3 4 5 6 7 8 9 10 11 12 13 14 15 16 17 18 19 20 21 22 23
039
FTUS41 KCLE 182351
TAFERI
TAF
KERI 182351Z 1900/1924 14005KT P6SM BKN250
     FM190500 16015G25KT P6SM BKN250
     FM191500 18018G30KT 3SM -RA BKN012 OVC025
     FM191800 19015G25KT 2SM -RA BR OVC006
     FM192300 19015G25KT 4SM -RA SCT006 OVC012=

USA.gov is the U.S. government's official web portal to all federal, state and local government web resources and services.